createdAt,value
2018-12-21T00:00:25.432Z,1.60
2018-12-21T00:03:00.691Z,1.60
2018-12-21T00:05:32.976Z,1.50
2018-12-21T00:08:04.976Z,1.40
2018-12-21T00:10:37.092Z,1.40
2018-12-21T00:13:17.779Z,1.40
2018-12-21T00:15:54.499Z,1.40
2018-12-21T00:18:25.770Z,1.50
2018-12-21T00:20:57.957Z,1.40
2018-12-21T00:23:35.199Z,1.50
2018-12-21T00:26:06.766Z,1.40
2018-12-21T00:28:38.775Z,1.50
2018-12-21T00:31:17.882Z,1.50
2018-12-21T00:33:59.415Z,1.40
2018-12-21T00:36:40.408Z,1.40
2018-12-21T00:39:21.560Z,1.50
2018-12-21T00:41:56.476Z,1.50
2018-12-21T00:44:38.111Z,1.40
2018-12-21T00:47:14.751Z,1.30
2018-12-21T00:49:50.171Z,1.30
2018-12-21T00:52:25.662Z,1.30
2018-12-21T00:54:57.907Z,1.40
2018-12-21T00:57:33.253Z,1.40
2018-12-21T01:00:10.554Z,1.50
2018-12-21T01:02:45.823Z,1.50
2018-12-21T01:05:21.351Z,1.50
2018-12-21T01:07:53.608Z,1.40
2018-12-21T01:10:28.895Z,1.40
2018-12-21T01:13:04.507Z,1.30
2018-12-21T01:15:36.591Z,1.20
2018-12-21T01:18:15.111Z,1.20
2018-12-21T01:20:47.226Z,1.30
2018-12-21T01:23:19.501Z,1.30
2018-12-21T01:25:55.019Z,1.30
2018-12-21T01:28:30.311Z,1.30
2018-12-21T01:31:05.630Z,1.40
2018-12-21T01:33:37.804Z,1.50
2018-12-21T01:36:09.792Z,1.50
2018-12-21T01:38:42.001Z,1.50
2018-12-21T01:41:14.076Z,1.50
2018-12-21T01:43:46.344Z,1.60
2018-12-21T01:46:23.966Z,1.60
2018-12-21T01:48:59.541Z,1.60
2018-12-21T01:51:31.687Z,1.70
2018-12-21T01:54:04.010Z,1.60
2018-12-21T01:56:40.123Z,1.60
2018-12-21T01:59:12.294Z,1.60
2018-12-21T02:01:44.695Z,1.60
2018-12-21T02:04:16.911Z,1.60
2018-12-21T02:06:49.081Z,1.60
2018-12-21T02:09:21.255Z,1.60
2018-12-21T02:11:57.150Z,1.60
2018-12-21T02:14:29.883Z,1.70
2018-12-21T02:17:05.640Z,1.60
2018-12-21T02:19:37.655Z,1.50
2018-12-21T02:22:12.975Z,1.50
2018-12-21T02:24:48.236Z,1.50
2018-12-21T02:27:19.511Z,1.50
2018-12-21T02:29:54.808Z,1.50
2018-12-21T02:32:27.175Z,1.40
2018-12-21T02:35:04.319Z,1.40
2018-12-21T02:37:40.088Z,1.40
2018-12-21T02:40:12.260Z,1.40
2018-12-21T02:42:47.548Z,1.40
2018-12-21T02:45:19.639Z,1.40
2018-12-21T02:47:55.124Z,1.40
2018-12-21T02:50:30.540Z,1.40
2018-12-21T02:53:02.626Z,1.40
2018-12-21T02:55:41.883Z,1.40
2018-12-21T02:58:14.095Z,1.50
2018-12-21T03:00:49.420Z,1.50
2018-12-21T03:03:21.464Z,1.40
2018-12-21T03:06:05.633Z,1.40
2018-12-21T03:08:49.970Z,1.30
2018-12-21T03:11:26.432Z,1.40
2018-12-21T03:14:03.535Z,1.50
2018-12-21T03:16:39.451Z,1.50
2018-12-21T03:19:11.569Z,1.40
2018-12-21T03:21:47.447Z,1.30
2018-12-21T03:24:22.729Z,1.40
2018-12-21T03:26:58.102Z,1.30
2018-12-21T03:29:34.301Z,1.30
2018-12-21T03:32:09.575Z,1.20
2018-12-21T03:34:52.982Z,1.20
2018-12-21T03:37:25.097Z,1.30
2018-12-21T03:40:01.456Z,1.30
2018-12-21T03:42:33.539Z,1.30
2018-12-21T03:45:06.005Z,1.20
2018-12-21T03:47:38.039Z,1.20
2018-12-21T03:50:16.452Z,1.20
2018-12-21T03:52:51.754Z,1.20
2018-12-21T03:55:27.099Z,1.20
2018-12-21T03:57:59.260Z,1.20
2018-12-21T04:00:44.541Z,1.10
2018-12-21T04:03:26.191Z,1.00
2018-12-21T04:06:02.647Z,1.00
2018-12-21T04:08:34.831Z,1.00
2018-12-21T04:11:10.167Z,1.00
2018-12-21T04:13:42.317Z,1.10
2018-12-21T04:16:17.595Z,1.20
2018-12-21T04:18:52.886Z,1.30
2018-12-21T04:21:25.134Z,1.20
2018-12-21T04:23:57.350Z,1.10
2018-12-21T04:26:36.487Z,1.10
2018-12-21T04:29:14.857Z,1.10
2018-12-21T04:31:47.029Z,1.00
2018-12-21T04:34:22.555Z,1.10
2018-12-21T04:36:54.616Z,1.10
2018-12-21T04:39:29.971Z,1.00
2018-12-21T04:42:02.047Z,1.00
2018-12-21T04:44:34.100Z,1.10
2018-12-21T04:47:09.462Z,1.20
2018-12-21T04:49:47.518Z,1.20
2018-12-21T04:52:23.046Z,1.20
2018-12-21T04:54:55.031Z,1.20
2018-12-21T04:57:27.196Z,1.20
2018-12-21T05:00:03.972Z,1.20
2018-12-21T05:02:41.129Z,1.20
2018-12-21T05:05:13.236Z,1.20
2018-12-21T05:07:45.551Z,1.20
2018-12-21T05:10:21.574Z,1.30
2018-12-21T05:12:53.764Z,1.30
2018-12-21T05:15:29.075Z,1.40
2018-12-21T05:18:01.297Z,1.40
2018-12-21T05:20:33.723Z,1.40
2018-12-21T05:23:05.792Z,1.50
2018-12-21T05:25:41.183Z,1.70
2018-12-21T05:28:17.302Z,1.70
2018-12-21T05:30:49.551Z,1.80
2018-12-21T05:33:24.948Z,1.80
2018-12-21T05:36:00.253Z,1.70
2018-12-21T05:38:35.533Z,1.60
2018-12-21T05:41:07.793Z,1.50
2018-12-21T05:43:40.684Z,1.60
2018-12-21T05:46:16.051Z,1.70
2018-12-21T05:48:48.064Z,1.70
2018-12-21T05:51:23.578Z,1.80
2018-12-21T05:53:58.975Z,1.90
2018-12-21T05:56:31.127Z,2.00
2018-12-21T05:59:06.419Z,2.20
2018-12-21T06:01:42.646Z,2.30
2018-12-21T06:04:14.714Z,2.30
2018-12-21T06:06:46.788Z,2.30
2018-12-21T06:09:22.071Z,2.20
2018-12-21T06:11:57.363Z,2.10
2018-12-21T06:14:32.612Z,2.10
2018-12-21T06:17:07.880Z,2.10
2018-12-21T06:19:39.306Z,2.10
2018-12-21T06:22:11.575Z,2.10
2018-12-21T06:24:46.956Z,2.10
2018-12-21T06:27:19.023Z,2.10
2018-12-21T06:29:51.201Z,2.20
2018-12-21T06:32:26.559Z,2.20
2018-12-21T06:35:01.851Z,2.10
2018-12-21T06:37:37.154Z,2.20
2018-12-21T06:40:14.350Z,2.20
2018-12-21T06:42:51.524Z,2.10
2018-12-21T06:45:30.332Z,2.00
2018-12-21T06:48:05.956Z,2.10
2018-12-21T06:50:38.142Z,2.10
2018-12-21T06:53:17.706Z,2.20
2018-12-21T06:55:47.379Z,2.30
2018-12-21T06:58:22.728Z,2.50
2018-12-21T07:00:54.812Z,2.50
2018-12-21T07:03:30.224Z,2.40
2018-12-21T07:06:02.303Z,2.30
2018-12-21T07:08:37.763Z,2.30
2018-12-21T07:11:09.851Z,2.30
2018-12-21T07:13:45.239Z,2.30
2018-12-21T07:16:22.225Z,2.30
2018-12-21T07:18:54.914Z,2.40
2018-12-21T07:21:30.454Z,2.50
2018-12-21T07:24:02.691Z,2.60
2018-12-21T07:26:34.890Z,2.60
2018-12-21T07:29:10.222Z,2.80
2018-12-21T07:31:45.636Z,2.90
2018-12-21T07:34:21.065Z,2.90
2018-12-21T07:36:53.148Z,2.90
2018-12-21T07:39:28.444Z,2.90
2018-12-21T07:42:00.503Z,3.00
2018-12-21T07:44:35.968Z,3.00
2018-12-21T07:47:11.236Z,3.00
2018-12-21T07:49:46.520Z,3.00
2018-12-21T07:52:21.780Z,3.00
2018-12-21T07:54:57.306Z,3.00
2018-12-21T07:57:29.403Z,3.10
2018-12-21T08:00:07.652Z,3.10
2018-12-21T08:02:43.061Z,3.10
2018-12-21T08:05:15.289Z,3.20
2018-12-21T08:07:52.546Z,3.20
2018-12-21T08:10:24.683Z,3.20
2018-12-21T08:12:56.900Z,3.30
2018-12-21T08:15:29.181Z,3.30
2018-12-21T08:18:01.296Z,3.30
2018-12-21T08:20:33.447Z,3.40
2018-12-21T08:23:05.536Z,3.50
2018-12-21T08:25:37.612Z,3.60
2018-12-21T08:28:09.682Z,3.60
2018-12-21T08:30:45.069Z,3.70
2018-12-21T08:33:21.336Z,3.70
2018-12-21T08:35:53.503Z,3.60
2018-12-21T08:38:24.870Z,3.70
2018-12-21T08:41:02.399Z,3.70
2018-12-21T08:43:45.838Z,3.80
2018-12-21T08:46:17.891Z,3.90
2018-12-21T08:48:54.219Z,4.00
2018-12-21T08:51:29.707Z,4.00
2018-12-21T08:54:01.905Z,4.10
2018-12-21T08:56:37.394Z,4.10
2018-12-21T08:59:13.475Z,4.20
2018-12-21T09:01:49.183Z,4.20
2018-12-21T09:04:20.583Z,4.20
2018-12-21T09:06:59.685Z,4.20
2018-12-21T09:09:35.217Z,4.10
2018-12-21T09:12:07.391Z,4.20
2018-12-21T09:14:42.667Z,4.30
2018-12-21T09:17:14.831Z,4.40
2018-12-21T09:19:50.087Z,4.40
2018-12-21T09:22:22.205Z,4.40
2018-12-21T09:24:54.631Z,4.40
2018-12-21T09:27:30.019Z,4.50
2018-12-21T09:30:02.233Z,4.50
2018-12-21T09:32:37.594Z,4.50
2018-12-21T09:35:09.887Z,4.60
2018-12-21T09:37:41.855Z,4.60
2018-12-21T09:40:14.146Z,4.70
2018-12-21T09:42:45.570Z,4.70
2018-12-21T09:45:23.989Z,4.70
2018-12-21T09:47:59.543Z,4.70
2018-12-21T09:50:31.615Z,4.80
2018-12-21T09:53:03.088Z,4.80
2018-12-21T09:55:38.584Z,4.90
2018-12-21T09:58:13.887Z,4.90
2018-12-21T10:00:46.135Z,4.90
2018-12-21T10:03:23.211Z,4.90
2018-12-21T10:05:55.316Z,4.90
2018-12-21T10:08:27.339Z,4.90
2018-12-21T10:11:02.861Z,4.90
2018-12-21T10:13:38.178Z,4.90
2018-12-21T10:16:13.568Z,4.90
2018-12-21T10:18:50.129Z,4.90
2018-12-21T10:21:25.800Z,5.00
2018-12-21T10:23:57.978Z,5.00
2018-12-21T10:26:33.420Z,5.00
2018-12-21T10:29:05.005Z,5.00
2018-12-21T10:31:37.004Z,5.10
2018-12-21T10:34:09.158Z,5.10
2018-12-21T10:36:44.456Z,5.20
2018-12-21T10:39:18.253Z,5.20
2018-12-21T10:41:50.240Z,5.20
2018-12-21T10:44:22.234Z,5.20
2018-12-21T10:46:54.419Z,5.10
2018-12-21T10:49:32.022Z,5.20
2018-12-21T10:52:04.015Z,5.20
2018-12-21T10:54:39.783Z,5.20
2018-12-21T10:57:11.770Z,5.20
2018-12-21T10:59:43.854Z,5.20
2018-12-21T11:02:20.183Z,5.40
2018-12-21T11:04:52.243Z,5.50
2018-12-21T11:07:27.529Z,5.60
2018-12-21T11:25:25.079Z,5.80
2018-12-21T11:28:00.387Z,5.80
2018-12-21T11:30:32.679Z,5.80
2018-12-21T11:33:05.693Z,5.80
2018-12-21T11:35:37.911Z,5.80
2018-12-21T11:38:13.994Z,5.90
2018-12-21T11:40:46.189Z,5.90
2018-12-21T11:43:18.241Z,6.00
2018-12-21T11:45:49.571Z,6.00
2018-12-21T11:48:21.736Z,6.00
2018-12-21T11:50:53.900Z,6.00
2018-12-21T11:53:26.091Z,6.00
2018-12-21T11:55:58.335Z,6.00
2018-12-21T11:58:33.639Z,6.00
2018-12-21T12:01:05.638Z,6.10
2018-12-21T12:03:37.908Z,6.20
2018-12-21T12:06:09.231Z,6.20
2018-12-21T12:08:44.663Z,6.20
2018-12-21T12:11:20.159Z,6.30
2018-12-21T12:13:57.327Z,6.30
2018-12-21T12:16:32.686Z,6.30
2018-12-21T12:19:08.888Z,6.30
2018-12-21T12:21:44.182Z,6.30
2018-12-21T12:24:19.567Z,6.20
2018-12-21T12:26:55.439Z,6.20
2018-12-21T12:29:30.868Z,6.20
2018-12-21T12:32:18.677Z,6.20
2018-12-21T12:34:54.315Z,6.20
2018-12-21T12:37:26.375Z,6.30
2018-12-21T12:39:58.549Z,6.30
2018-12-21T12:42:33.938Z,6.30
2018-12-21T12:45:10.111Z,6.30
2018-12-21T12:47:45.399Z,6.30
2018-12-21T12:50:21.787Z,6.20
2018-12-21T12:52:57.199Z,6.20
2018-12-21T12:55:29.351Z,6.30
2018-12-21T12:58:01.416Z,6.30
2018-12-21T13:00:33.459Z,6.30
2018-12-21T13:03:08.704Z,6.30
2018-12-21T13:05:44.003Z,6.30
2018-12-21T13:08:19.243Z,6.30
2018-12-21T13:10:51.422Z,6.30
2018-12-21T13:13:23.680Z,6.30
2018-12-21T13:15:55.831Z,6.30
2018-12-21T13:18:27.999Z,6.30
2018-12-21T13:21:00.188Z,6.30
2018-12-21T13:23:37.419Z,6.20
2018-12-21T13:26:09.431Z,6.30
2018-12-21T13:28:45.876Z,6.20
2018-12-21T13:31:18.107Z,6.20
2018-12-21T13:33:53.542Z,6.20
2018-12-21T13:36:28.803Z,6.10
2018-12-21T13:39:07.028Z,6.10
2018-12-21T13:41:39.259Z,6.10
2018-12-21T13:44:14.767Z,6.00
2018-12-21T13:46:46.629Z,6.00
2018-12-21T13:49:21.963Z,6.00
2018-12-21T13:51:57.557Z,5.90
2018-12-21T13:54:33.017Z,5.90
2018-12-21T13:57:05.273Z,5.90
2018-12-21T13:59:40.731Z,5.90
2018-12-21T14:02:14.230Z,5.80
2018-12-21T14:04:50.146Z,5.80
2018-12-21T14:07:22.312Z,5.80
2018-12-21T14:09:57.755Z,5.80
2018-12-21T14:12:32.998Z,5.80
2018-12-21T14:15:05.918Z,5.90
2018-12-21T14:17:38.183Z,5.80
2018-12-21T14:20:11.591Z,5.80
2018-12-21T14:22:44.014Z,5.80
2018-12-21T14:25:28.675Z,5.80
2018-12-21T14:27:58.714Z,5.80
2018-12-21T14:30:30.863Z,5.80
2018-12-21T14:33:08.050Z,5.80
2018-12-21T14:35:43.360Z,5.80
2018-12-21T14:38:19.498Z,5.70
2018-12-21T14:40:54.858Z,5.70
2018-12-21T14:43:30.355Z,5.70
2018-12-21T14:46:05.631Z,5.70
2018-12-21T14:48:40.897Z,5.70
2018-12-21T14:51:16.147Z,5.70
2018-12-21T14:53:47.619Z,5.70
2018-12-21T14:56:24.803Z,5.60
2018-12-21T14:59:00.268Z,5.70
2018-12-21T15:01:31.974Z,5.80
2018-12-21T15:04:03.960Z,5.80
2018-12-21T15:06:35.302Z,5.80
2018-12-21T15:09:10.691Z,5.80
2018-12-21T15:11:42.051Z,5.90
2018-12-21T15:14:17.615Z,5.90
2018-12-21T15:16:52.876Z,6.00
2018-12-21T15:19:24.931Z,6.00
2018-12-21T15:21:57.454Z,5.90
2018-12-21T15:24:33.321Z,5.90
2018-12-21T15:27:05.407Z,5.90
2018-12-21T15:29:37.645Z,5.90
2018-12-21T15:32:09.736Z,5.90
2018-12-21T15:34:41.637Z,5.80
2018-12-21T15:37:16.984Z,5.90
2018-12-21T15:39:49.038Z,5.90
2018-12-21T15:42:21.173Z,5.90
2018-12-21T15:44:53.403Z,6.10
2018-12-21T15:47:28.773Z,6.20
2018-12-21T15:50:05.471Z,6.30
2018-12-21T15:52:37.828Z,6.40
2018-12-21T15:55:14.237Z,6.50
2018-12-21T15:57:46.214Z,6.50
2018-12-21T16:00:18.258Z,6.60
2018-12-21T16:02:55.232Z,6.60
2018-12-21T16:05:30.740Z,6.60
2018-12-21T16:08:06.163Z,6.60
2018-12-21T16:10:38.331Z,6.60
2018-12-21T16:13:09.690Z,6.60
2018-12-21T16:15:48.092Z,6.60
2018-12-21T16:18:20.174Z,6.60
2018-12-21T16:20:55.571Z,6.50
2018-12-21T16:23:27.797Z,6.50
2018-12-21T16:26:03.599Z,6.50
2018-12-21T16:28:34.230Z,6.40
2018-12-21T16:31:06.623Z,6.40
2018-12-21T16:33:38.720Z,6.50
2018-12-21T16:36:10.803Z,6.50
2018-12-21T16:38:46.075Z,6.50
2018-12-21T16:41:22.277Z,6.50
2018-12-21T16:44:02.710Z,6.60
2018-12-21T16:46:34.703Z,6.60
2018-12-21T16:49:10.217Z,6.70
2018-12-21T16:51:42.424Z,6.70
2018-12-21T16:54:18.703Z,6.80
2018-12-21T16:56:54.093Z,6.80
2018-12-21T16:59:30.987Z,6.80
2018-12-21T17:02:03.152Z,6.90
2018-12-21T17:04:38.409Z,6.90
2018-12-21T17:07:15.359Z,6.90
2018-12-21T17:09:50.763Z,6.90
2018-12-21T17:12:26.227Z,6.90
2018-12-21T17:15:01.487Z,6.90
2018-12-21T17:17:40.635Z,7.00
2018-12-21T17:20:12.900Z,7.00
2018-12-21T17:22:48.303Z,6.90
2018-12-21T17:25:20.396Z,6.90
2018-12-21T17:27:52.591Z,6.90
2018-12-21T17:30:29.979Z,6.90
2018-12-21T17:33:01.338Z,6.90
2018-12-21T17:35:33.504Z,7.00
2018-12-21T17:38:08.767Z,6.90
2018-12-21T17:40:45.812Z,6.90
2018-12-21T17:43:26.034Z,7.00
2018-12-21T17:46:01.392Z,7.00
2018-12-21T17:48:36.720Z,7.00
2018-12-21T17:51:12.565Z,7.00
2018-12-21T17:53:48.156Z,6.90
2018-12-21T17:56:29.927Z,6.90
2018-12-21T17:58:57.624Z,6.90
2018-12-21T18:01:34.393Z,6.90
2018-12-21T18:04:19.723Z,7.00
2018-12-21T18:06:56.307Z,7.00
2018-12-21T18:09:41.191Z,7.10
2018-12-21T18:12:24.488Z,7.10
2018-12-21T18:15:01.012Z,7.10
2018-12-21T18:17:36.952Z,7.00
2018-12-21T18:20:15.263Z,7.00
2018-12-21T18:22:52.301Z,7.00
2018-12-21T18:25:27.152Z,6.90
2018-12-21T18:28:01.288Z,6.90
2018-12-21T18:30:42.479Z,6.90
2018-12-21T18:33:21.400Z,6.90
2018-12-21T18:35:57.502Z,6.90
2018-12-21T18:38:32.923Z,6.90
2018-12-21T18:41:05.060Z,6.90
2018-12-21T18:43:40.439Z,7.00
2018-12-21T18:46:15.856Z,7.00
2018-12-21T18:48:48.055Z,6.90
2018-12-21T18:51:20.279Z,6.90
2018-12-21T18:53:52.567Z,6.90
2018-12-21T18:56:29.693Z,6.90
2018-12-21T18:59:05.584Z,6.90
2018-12-21T19:01:41.888Z,6.90
2018-12-21T19:04:13.864Z,6.80
2018-12-21T19:06:50.797Z,6.80
2018-12-21T19:09:22.505Z,6.80
2018-12-21T19:11:54.504Z,6.80
2018-12-21T19:14:29.775Z,6.80
2018-12-21T19:17:01.916Z,6.80
2018-12-21T19:19:37.505Z,6.80
2018-12-21T19:22:13.709Z,6.80
2018-12-21T19:24:50.262Z,6.80
2018-12-21T19:27:26.277Z,6.80
2018-12-21T19:30:02.301Z,6.90
2018-12-21T19:32:38.836Z,6.90
2018-12-21T19:35:14.920Z,6.80
2018-12-21T19:37:51.588Z,6.70
2018-12-21T19:40:25.222Z,6.80
2018-12-21T19:43:00.900Z,6.80
2018-12-21T19:45:33.161Z,6.80
2018-12-21T19:48:05.260Z,6.80
2018-12-21T19:50:37.642Z,6.80
2018-12-21T19:53:09.728Z,6.80
2018-12-21T19:55:49.355Z,6.80
2018-12-21T19:58:25.274Z,6.80
2018-12-21T20:00:57.362Z,6.80
2018-12-21T20:03:32.741Z,6.90
2018-12-21T20:06:08.042Z,6.90
2018-12-21T20:08:44.509Z,7.00
2018-12-21T20:11:20.822Z,7.00
2018-12-21T20:13:53.001Z,7.00
2018-12-21T20:16:28.401Z,7.00
2018-12-21T20:19:00.585Z,7.00
2018-12-21T20:21:35.917Z,7.00
2018-12-21T20:24:11.219Z,6.90
2018-12-21T20:26:46.811Z,6.90
2018-12-21T20:29:22.489Z,6.90
2018-12-21T20:31:57.992Z,6.90
2018-12-21T20:34:33.654Z,6.90
2018-12-21T20:37:09.346Z,6.90
2018-12-21T20:39:47.067Z,6.80
2018-12-21T20:42:22.450Z,6.80
2018-12-21T20:44:54.679Z,6.80
2018-12-21T20:47:26.764Z,6.70
2018-12-21T20:50:02.063Z,6.70
2018-12-21T20:52:37.618Z,6.70
2018-12-21T20:55:14.240Z,6.70
2018-12-21T20:57:48.971Z,6.70
2018-12-21T21:00:21.039Z,6.60
2018-12-21T21:02:56.300Z,6.60
2018-12-21T21:05:28.491Z,6.60
2018-12-21T21:08:06.843Z,6.60
2018-12-21T21:10:42.266Z,6.70
2018-12-21T21:13:19.210Z,6.60
2018-12-21T21:15:51.968Z,6.70
2018-12-21T21:18:28.083Z,6.70
2018-12-21T21:21:04.634Z,6.80
2018-12-21T21:23:40.424Z,6.90
2018-12-21T21:26:15.675Z,7.00
2018-12-21T21:28:51.108Z,7.10
2018-12-21T21:31:27.909Z,7.10
2018-12-21T21:34:03.874Z,7.20
2018-12-21T21:36:35.927Z,7.30
2018-12-21T21:39:08.139Z,7.30
2018-12-21T21:41:45.070Z,7.30
2018-12-21T21:44:21.306Z,7.30
2018-12-21T21:46:53.523Z,7.30
2018-12-21T21:49:28.881Z,7.40
2018-12-21T21:52:01.027Z,7.30
2018-12-21T21:54:33.274Z,7.20
2018-12-21T21:57:05.263Z,7.20
2018-12-21T21:59:40.998Z,7.10
2018-12-21T22:02:13.109Z,7.10
2018-12-21T22:04:45.270Z,7.00
2018-12-21T22:07:17.215Z,6.90
2018-12-21T22:09:52.716Z,6.90
2018-12-21T22:12:28.199Z,6.90
2018-12-21T22:15:03.900Z,6.90
2018-12-21T22:17:36.103Z,7.00
2018-12-21T22:20:10.208Z,7.00
2018-12-21T22:22:41.819Z,6.90
2018-12-21T22:25:13.805Z,6.90
2018-12-21T22:27:50.855Z,6.90
2018-12-21T22:30:26.203Z,6.90
2018-12-21T22:33:01.611Z,6.90
2018-12-21T22:35:37.120Z,7.00
2018-12-21T22:38:09.206Z,7.00
2018-12-21T22:40:41.328Z,7.00
2018-12-21T22:43:13.321Z,7.10
2018-12-21T22:45:45.623Z,7.20
2018-12-21T22:48:17.871Z,7.20
2018-12-21T22:50:50.002Z,7.20
2018-12-21T22:53:26.228Z,7.20
2018-12-21T22:55:58.479Z,7.20
2018-12-21T22:58:33.812Z,7.10
2018-12-21T23:01:09.885Z,7.20
2018-12-21T23:03:45.780Z,7.20
2018-12-21T23:06:20.694Z,7.20
2018-12-21T23:08:56.120Z,7.20
2018-12-21T23:11:31.550Z,7.20
2018-12-21T23:14:07.214Z,7.10
2018-12-21T23:16:39.276Z,7.20
2018-12-21T23:19:14.645Z,7.20
2018-12-21T23:21:46.816Z,7.20
2018-12-21T23:24:22.364Z,7.30
2018-12-21T23:26:54.648Z,7.30
2018-12-21T23:29:30.224Z,7.30
2018-12-21T23:32:03.695Z,7.40
2018-12-21T23:34:35.812Z,7.40
2018-12-21T23:37:11.972Z,7.50
2018-12-21T23:39:47.392Z,7.50
2018-12-21T23:42:19.458Z,7.50
2018-12-21T23:44:50.958Z,7.50
2018-12-21T23:47:26.256Z,7.50
2018-12-21T23:50:03.706Z,7.50
2018-12-21T23:52:39.142Z,7.60
2018-12-21T23:55:14.639Z,7.50
2018-12-21T23:57:46.600Z,7.60
